sensor_id;sensor_type;location;lat;lon;timestamp;P1;durP1;ratioP1;P2;durP2;ratioP2
14520;SDS011;7347;50.844;4.490;2023-02-13T08:17:42;14.07;;;6.73;;
14520;SDS011;7347;50.844;4.490;2023-02-13T08:20:09;10.57;;;5.63;;
14520;SDS011;7347;50.844;4.490;2023-02-13T08:22:36;11.93;;;6.17;;
14520;SDS011;7347;50.844;4.490;2023-02-13T08:25:04;13.23;;;5.80;;
14520;SDS011;7347;50.844;4.490;2023-02-13T08:27:33;9.77;;;5.50;;
14520;SDS011;7347;50.844;4.490;2023-02-13T08:30:00;10.67;;;5.93;;
14520;SDS011;7347;50.844;4.490;2023-02-13T08:32:28;12.30;;;5.60;;
14520;SDS011;7347;50.844;4.490;2023-02-13T08:34:56;10.57;;;5.57;;
14520;SDS011;7347;50.844;4.490;2023-02-13T08:37:22;10.83;;;5.60;;
14520;SDS011;7347;50.844;4.490;2023-02-13T08:39:49;11.13;;;6.00;;
14520;SDS011;7347;50.844;4.490;2023-02-13T08:42:16;10.00;;;5.90;;
14520;SDS011;7347;50.844;4.490;2023-02-13T08:44:43;10.63;;;5.80;;
14520;SDS011;7347;50.844;4.490;2023-02-13T08:47:10;10.37;;;5.80;;
14520;SDS011;7347;50.844;4.490;2023-02-13T08:49:37;11.13;;;5.70;;
14520;SDS011;7347;50.844;4.490;2023-02-13T08:52:05;11.23;;;5.30;;
14520;SDS011;7347;50.844;4.490;2023-02-13T08:54:32;8.87;;;5.50;;
14520;SDS011;7347;50.844;4.490;2023-02-13T08:57:00;10.23;;;5.80;;
14520;SDS011;7347;50.844;4.490;2023-02-13T08:59:26;11.17;;;5.93;;
14520;SDS011;7347;50.844;4.490;2023-02-13T09:01:53;9.27;;;4.93;;
14520;SDS011;7347;50.844;4.490;2023-02-13T09:04:20;12.60;;;5.87;;
14520;SDS011;7347;50.844;4.490;2023-02-13T09:06:47;9.37;;;5.50;;
14520;SDS011;7347;50.844;4.490;2023-02-13T09:09:15;9.43;;;5.50;;
14520;SDS011;7347;50.844;4.490;2023-02-13T09:11:42;10.87;;;5.67;;
14520;SDS011;7347;50.844;4.490;2023-02-13T09:14:08;9.00;;;4.73;;
14520;SDS011;7347;50.844;4.490;2023-02-13T09:16:35;9.80;;;4.87;;
14520;SDS011;7347;50.844;4.490;2023-02-13T09:19:02;8.83;;;4.60;;
14520;SDS011;7347;50.844;4.490;2023-02-13T09:21:29;9.13;;;4.90;;
14520;SDS011;7347;50.844;4.490;2023-02-13T09:23:56;9.63;;;4.97;;
14520;SDS011;7347;50.844;4.490;2023-02-13T09:26:24;10.30;;;4.73;;
14520;SDS011;7347;50.844;4.490;2023-02-13T09:28:51;10.07;;;4.73;;
14520;SDS011;7347;50.844;4.490;2023-02-13T09:31:18;9.77;;;4.07;;
14520;SDS011;7347;50.844;4.490;2023-02-13T09:33:47;8.47;;;4.37;;
14520;SDS011;7347;50.844;4.490;2023-02-13T09:36:15;10.20;;;5.30;;
14520;SDS011;7347;50.844;4.490;2023-02-13T09:38:44;9.47;;;4.17;;
14520;SDS011;7347;50.844;4.490;2023-02-13T09:41:12;11.33;;;4.73;;
14520;SDS011;7347;50.844;4.490;2023-02-13T09:43:45;9.40;;;4.43;;
14520;SDS011;7347;50.844;4.490;2023-02-13T09:46:17;8.07;;;4.17;;
14520;SDS011;7347;50.844;4.490;2023-02-13T09:48:47;11.60;;;4.47;;
14520;SDS011;7347;50.844;4.490;2023-02-13T09:51:17;11.90;;;4.87;;
14520;SDS011;7347;50.844;4.490;2023-02-13T09:53:49;9.40;;;4.23;;
14520;SDS011;7347;50.844;4.490;2023-02-13T09:56:20;9.67;;;4.33;;
14520;SDS011;7347;50.844;4.490;2023-02-13T09:58:56;14.20;;;5.23;;
14520;SDS011;7347;50.844;4.490;2023-02-13T10:01:27;11.10;;;4.70;;
14520;SDS011;7347;50.844;4.490;2023-02-13T10:04:06;10.50;;;4.87;;
14520;SDS011;7347;50.844;4.490;2023-02-13T10:06:48;11.47;;;4.77;;
14520;SDS011;7347;50.844;4.490;2023-02-13T10:09:21;10.60;;;5.20;;
14520;SDS011;7347;50.844;4.490;2023-02-13T10:14:56;10.07;;;4.07;;
14520;SDS011;7347;50.844;4.490;2023-02-13T10:17:35;9.43;;;4.40;;
14520;SDS011;7347;50.844;4.490;2023-02-13T10:20:06;9.63;;;4.20;;
14520;SDS011;7347;50.844;4.490;2023-02-13T10:22:43;9.27;;;3.87;;
14520;SDS011;7347;50.844;4.490;2023-02-13T10:25:15;9.87;;;4.07;;
14520;SDS011;7347;50.844;4.490;2023-02-13T10:27:46;9.43;;;4.40;;
14520;SDS011;7347;50.844;4.490;2023-02-13T10:30:19;9.10;;;4.17;;
14520;SDS011;7347;50.844;4.490;2023-02-13T10:32:50;11.73;;;5.03;;
14520;SDS011;7347;50.844;4.490;2023-02-13T10:35:35;11.93;;;4.37;;
14520;SDS011;7347;50.844;4.490;2023-02-13T10:38:05;14.87;;;5.57;;
14520;SDS011;7347;50.844;4.490;2023-02-13T10:40:40;9.13;;;4.47;;
14520;SDS011;7347;50.844;4.490;2023-02-13T10:43:37;11.60;;;4.60;;
14520;SDS011;7347;50.844;4.490;2023-02-13T10:46:16;9.20;;;4.30;;
14520;SDS011;7347;50.844;4.490;2023-02-13T10:51:53;9.37;;;4.60;;
14520;SDS011;7347;50.844;4.490;2023-02-13T10:54:30;11.40;;;4.30;;
14520;SDS011;7347;50.844;4.490;2023-02-13T10:57:13;8.13;;;4.13;;
14520;SDS011;7347;50.844;4.490;2023-02-13T10:59:54;8.97;;;3.90;;
14520;SDS011;7347;50.844;4.490;2023-02-13T11:02:29;9.43;;;3.93;;
14520;SDS011;7347;50.844;4.490;2023-02-13T11:04:59;9.13;;;3.50;;
14520;SDS011;7347;50.844;4.490;2023-02-13T11:07:27;8.83;;;4.10;;
14520;SDS011;7347;50.844;4.490;2023-02-13T11:09:57;9.40;;;3.50;;
14520;SDS011;7347;50.844;4.490;2023-02-13T11:12:30;6.77;;;3.40;;
14520;SDS011;7347;50.844;4.490;2023-02-13T11:14:58;7.07;;;3.93;;
14520;SDS011;7347;50.844;4.490;2023-02-13T11:17:27;7.77;;;3.90;;
14520;SDS011;7347;50.844;4.490;2023-02-13T11:19:57;6.10;;;3.40;;
14520;SDS011;7347;50.844;4.490;2023-02-13T11:22:27;6.67;;;3.63;;
14520;SDS011;7347;50.844;4.490;2023-02-13T11:24:58;11.93;;;4.40;;
14520;SDS011;7347;50.844;4.490;2023-02-13T11:27:29;8.30;;;3.57;;
14520;SDS011;7347;50.844;4.490;2023-02-13T11:29:58;10.20;;;4.50;;
14520;SDS011;7347;50.844;4.490;2023-02-13T11:32:31;10.83;;;4.17;;
14520;SDS011;7347;50.844;4.490;2023-02-13T11:34:59;11.87;;;4.10;;
14520;SDS011;7347;50.844;4.490;2023-02-13T11:37:58;10.27;;;4.60;;
14520;SDS011;7347;50.844;4.490;2023-02-13T11:40:38;9.23;;;5.20;;
14520;SDS011;7347;50.844;4.490;2023-02-13T11:43:13;8.90;;;4.50;;
14520;SDS011;7347;50.844;4.490;2023-02-13T11:45:44;9.17;;;4.40;;
14520;SDS011;7347;50.844;4.490;2023-02-13T11:48:18;8.97;;;4.40;;
14520;SDS011;7347;50.844;4.490;2023-02-13T11:50:50;10.37;;;4.50;;
14520;SDS011;7347;50.844;4.490;2023-02-13T11:53:18;8.27;;;4.17;;
14520;SDS011;7347;50.844;4.490;2023-02-13T11:56:00;10.17;;;4.97;;
14520;SDS011;7347;50.844;4.490;2023-02-13T11:58:28;8.53;;;4.27;;
14520;SDS011;7347;50.844;4.490;2023-02-13T12:01:06;10.83;;;4.60;;
14520;SDS011;7347;50.844;4.490;2023-02-13T12:03:36;13.30;;;4.50;;
14520;SDS011;7347;50.844;4.490;2023-02-13T12:06:10;9.37;;;4.17;;
14520;SDS011;7347;50.844;4.490;2023-02-13T12:08:38;10.00;;;4.60;;
14520;SDS011;7347;50.844;4.490;2023-02-13T12:11:13;12.03;;;4.77;;
14520;SDS011;7347;50.844;4.490;2023-02-13T12:13:46;8.10;;;4.30;;
14520;SDS011;7347;50.844;4.490;2023-02-13T12:16:15;9.17;;;4.30;;
14520;SDS011;7347;50.844;4.490;2023-02-13T12:18:54;10.60;;;4.73;;
14520;SDS011;7347;50.844;4.490;2023-02-13T12:21:27;9.53;;;4.40;;
14520;SDS011;7347;50.844;4.490;2023-02-13T12:24:08;9.07;;;4.43;;
14520;SDS011;7347;50.844;4.490;2023-02-13T12:26:43;9.80;;;4.50;;
14520;SDS011;7347;50.844;4.490;2023-02-13T12:32:09;7.90;;;4.30;;
14520;SDS011;7347;50.844;4.490;2023-02-13T12:35:02;9.57;;;4.57;;
14520;SDS011;7347;50.844;4.490;2023-02-13T12:37:47;7.00;;;3.53;;
14520;SDS011;7347;50.844;4.490;2023-02-13T12:40:26;11.93;;;4.47;;
14520;SDS011;7347;50.844;4.490;2023-02-13T12:43:08;11.37;;;5.33;;
14520;SDS011;7347;50.844;4.490;2023-02-13T12:45:48;9.17;;;4.47;;
14520;SDS011;7347;50.844;4.490;2023-02-13T12:48:25;9.47;;;4.80;;
14520;SDS011;7347;50.844;4.490;2023-02-13T12:51:08;11.60;;;4.53;;
14520;SDS011;7347;50.844;4.490;2023-02-13T12:56:45;11.00;;;4.83;;
14520;SDS011;7347;50.844;4.490;2023-02-13T12:59:31;12.87;;;5.30;;
14520;SDS011;7347;50.844;4.490;2023-02-13T13:02:16;9.37;;;4.17;;
14520;SDS011;7347;50.844;4.490;2023-02-13T13:04:58;8.33;;;4.13;;
14520;SDS011;7347;50.844;4.490;2023-02-13T13:07:41;9.73;;;3.83;;
14520;SDS011;7347;50.844;4.490;2023-02-13T13:13:09;7.97;;;3.90;;
14520;SDS011;7347;50.844;4.490;2023-02-13T13:15:44;11.40;;;3.80;;
14520;SDS011;7347;50.844;4.490;2023-02-13T13:18:20;6.60;;;3.30;;
14520;SDS011;7347;50.844;4.490;2023-02-13T13:20:58;9.33;;;4.47;;
14520;SDS011;7347;50.844;4.490;2023-02-13T13:23:36;9.03;;;3.83;;
14520;SDS011;7347;50.844;4.490;2023-02-13T13:26:12;7.87;;;3.33;;
14520;SDS011;7347;50.844;4.490;2023-02-13T13:28:46;6.27;;;2.97;;
14520;SDS011;7347;50.844;4.490;2023-02-13T13:31:15;6.37;;;3.43;;
14520;SDS011;7347;50.844;4.490;2023-02-13T13:33:43;8.13;;;3.63;;
14520;SDS011;7347;50.844;4.490;2023-02-13T13:36:13;6.50;;;3.27;;
14520;SDS011;7347;50.844;4.490;2023-02-13T13:38:51;4.90;;;3.07;;
14520;SDS011;7347;50.844;4.490;2023-02-13T13:41:26;8.60;;;3.30;;
14520;SDS011;7347;50.844;4.490;2023-02-13T13:44:06;7.97;;;4.10;;
14520;SDS011;7347;50.844;4.490;2023-02-13T13:46:53;6.20;;;3.00;;
14520;SDS011;7347;50.844;4.490;2023-02-13T13:49:28;7.30;;;3.13;;
14520;SDS011;7347;50.844;4.490;2023-02-13T13:52:08;4.73;;;2.87;;
14520;SDS011;7347;50.844;4.490;2023-02-13T13:54:45;6.97;;;3.20;;
14520;SDS011;7347;50.844;4.490;2023-02-13T13:57:16;7.43;;;3.53;;
14520;SDS011;7347;50.844;4.490;2023-02-13T13:59:56;6.43;;;3.07;;
14520;SDS011;7347;50.844;4.490;2023-02-13T14:02:33;6.80;;;3.00;;
14520;SDS011;7347;50.844;4.490;2023-02-13T14:05:24;6.90;;;3.20;;
14520;SDS011;7347;50.844;4.490;2023-02-13T14:07:54;7.07;;;2.97;;
14520;SDS011;7347;50.844;4.490;2023-02-13T14:13:34;7.63;;;3.67;;
14520;SDS011;7347;50.844;4.490;2023-02-13T14:16:03;6.83;;;3.27;;
14520;SDS011;7347;50.844;4.490;2023-02-13T14:18:31;7.03;;;3.30;;
14520;SDS011;7347;50.844;4.490;2023-02-13T14:20:59;7.57;;;3.03;;
14520;SDS011;7347;50.844;4.490;2023-02-13T14:23:29;7.40;;;3.60;;
14520;SDS011;7347;50.844;4.490;2023-02-13T14:26:09;5.13;;;2.60;;
14520;SDS011;7347;50.844;4.490;2023-02-13T14:28:55;6.17;;;2.97;;
14520;SDS011;7347;50.844;4.490;2023-02-13T14:31:27;6.23;;;2.97;;
14520;SDS011;7347;50.844;4.490;2023-02-13T14:33:56;6.27;;;3.10;;
14520;SDS011;7347;50.844;4.490;2023-02-13T14:36:26;5.43;;;3.10;;
14520;SDS011;7347;50.844;4.490;2023-02-13T14:38:57;4.77;;;2.37;;
14520;SDS011;7347;50.844;4.490;2023-02-13T14:41:44;5.23;;;2.90;;
14520;SDS011;7347;50.844;4.490;2023-02-13T14:44:25;6.03;;;2.63;;
14520;SDS011;7347;50.844;4.490;2023-02-13T14:46:57;5.33;;;2.63;;
14520;SDS011;7347;50.844;4.490;2023-02-13T14:49:27;6.33;;;3.20;;
14520;SDS011;7347;50.844;4.490;2023-02-13T14:51:57;4.33;;;2.40;;
14520;SDS011;7347;50.844;4.490;2023-02-13T14:54:28;6.57;;;3.30;;
14520;SDS011;7347;50.844;4.490;2023-02-13T14:56:59;6.30;;;2.97;;
14520;SDS011;7347;50.844;4.490;2023-02-13T14:59:34;4.80;;;2.70;;
14520;SDS011;7347;50.844;4.490;2023-02-13T15:02:08;6.37;;;2.90;;
14520;SDS011;7347;50.844;4.490;2023-02-13T15:04:42;6.07;;;2.90;;
14520;SDS011;7347;50.844;4.490;2023-02-13T15:07:13;6.03;;;3.10;;
14520;SDS011;7347;50.844;4.490;2023-02-13T15:09:44;5.70;;;3.00;;
14520;SDS011;7347;50.844;4.490;2023-02-13T15:12:28;5.40;;;2.80;;
14520;SDS011;7347;50.844;4.490;2023-02-13T15:14:57;8.10;;;3.07;;
14520;SDS011;7347;50.844;4.490;2023-02-13T15:17:27;7.27;;;2.63;;
14520;SDS011;7347;50.844;4.490;2023-02-13T15:19:58;4.83;;;2.70;;
14520;SDS011;7347;50.844;4.490;2023-02-13T15:22:30;5.47;;;2.60;;
14520;SDS011;7347;50.844;4.490;2023-02-13T15:24:58;5.47;;;2.50;;
14520;SDS011;7347;50.844;4.490;2023-02-13T15:27:27;6.13;;;3.03;;
14520;SDS011;7347;50.844;4.490;2023-02-13T15:29:58;6.03;;;3.37;;
14520;SDS011;7347;50.844;4.490;2023-02-13T15:32:28;6.63;;;3.10;;
14520;SDS011;7347;50.844;4.490;2023-02-13T15:34:59;4.60;;;2.77;;
14520;SDS011;7347;50.844;4.490;2023-02-13T15:37:27;5.97;;;2.80;;
14520;SDS011;7347;50.844;4.490;2023-02-13T15:39:55;5.37;;;2.80;;
14520;SDS011;7347;50.844;4.490;2023-02-13T15:42:39;5.40;;;2.80;;
14520;SDS011;7347;50.844;4.490;2023-02-13T15:45:11;4.40;;;2.50;;
14520;SDS011;7347;50.844;4.490;2023-02-13T15:47:40;5.00;;;2.80;;
14520;SDS011;7347;50.844;4.490;2023-02-13T15:50:13;4.50;;;2.63;;
14520;SDS011;7347;50.844;4.490;2023-02-13T15:52:42;6.90;;;3.03;;
14520;SDS011;7347;50.844;4.490;2023-02-13T15:55:16;6.17;;;3.40;;
14520;SDS011;7347;50.844;4.490;2023-02-13T15:57:44;5.03;;;2.70;;
14520;SDS011;7347;50.844;4.490;2023-02-13T16:00:14;5.70;;;2.57;;
14520;SDS011;7347;50.844;4.490;2023-02-13T16:02:48;5.70;;;3.00;;
14520;SDS011;7347;50.844;4.490;2023-02-13T16:05:17;4.97;;;2.77;;
14520;SDS011;7347;50.844;4.490;2023-02-13T16:07:48;6.17;;;3.13;;
14520;SDS011;7347;50.844;4.490;2023-02-13T16:10:17;5.83;;;2.70;;
14520;SDS011;7347;50.844;4.490;2023-02-13T16:12:50;6.97;;;3.10;;
14520;SDS011;7347;50.844;4.490;2023-02-13T16:15:19;4.83;;;2.63;;
14520;SDS011;7347;50.844;4.490;2023-02-13T16:17:47;6.67;;;3.10;;
14520;SDS011;7347;50.844;4.490;2023-02-13T16:20:18;7.53;;;2.93;;
14520;SDS011;7347;50.844;4.490;2023-02-13T16:22:47;5.87;;;2.60;;
14520;SDS011;7347;50.844;4.490;2023-02-13T16:25:17;7.70;;;3.07;;
14520;SDS011;7347;50.844;4.490;2023-02-13T16:27:49;7.07;;;3.20;;
14520;SDS011;7347;50.844;4.490;2023-02-13T16:30:23;6.03;;;3.17;;
14520;SDS011;7347;50.844;4.490;2023-02-13T16:33:07;5.37;;;2.93;;
14520;SDS011;7347;50.844;4.490;2023-02-13T16:35:45;5.87;;;2.80;;
14520;SDS011;7347;50.844;4.490;2023-02-13T16:38:30;6.93;;;3.10;;
14520;SDS011;7347;50.844;4.490;2023-02-13T16:40:59;8.90;;;3.27;;
14520;SDS011;7347;50.844;4.490;2023-02-13T16:43:41;6.17;;;2.90;;
14520;SDS011;7347;50.844;4.490;2023-02-13T16:46:12;6.07;;;3.30;;
14520;SDS011;7347;50.844;4.490;2023-02-13T16:48:56;5.33;;;2.67;;
14520;SDS011;7347;50.844;4.490;2023-02-13T16:51:29;5.90;;;3.10;;
14520;SDS011;7347;50.844;4.490;2023-02-13T16:54:00;5.00;;;2.60;;
14520;SDS011;7347;50.844;4.490;2023-02-13T16:56:35;5.50;;;2.67;;
14520;SDS011;7347;50.844;4.490;2023-02-13T16:59:03;6.30;;;2.50;;
14520;SDS011;7347;50.844;4.490;2023-02-13T17:01:40;6.23;;;2.57;;
14520;SDS011;7347;50.844;4.490;2023-02-13T17:04:09;5.90;;;2.67;;
14520;SDS011;7347;50.844;4.490;2023-02-13T17:06:45;7.43;;;2.87;;
14520;SDS011;7347;50.844;4.490;2023-02-13T17:09:12;4.70;;;2.53;;
14520;SDS011;7347;50.844;4.490;2023-02-13T17:11:38;5.03;;;2.70;;
14520;SDS011;7347;50.844;4.490;2023-02-13T17:14:05;6.10;;;2.67;;
14520;SDS011;7347;50.844;4.490;2023-02-13T17:16:32;7.17;;;2.93;;
14520;SDS011;7347;50.844;4.490;2023-02-13T17:19:00;5.13;;;2.60;;
14520;SDS011;7347;50.844;4.490;2023-02-13T17:21:27;6.13;;;2.50;;
14520;SDS011;7347;50.844;4.490;2023-02-13T17:23:54;5.03;;;2.50;;
14520;SDS011;7347;50.844;4.490;2023-02-13T17:26:21;5.93;;;2.73;;
14520;SDS011;7347;50.844;4.490;2023-02-13T17:28:48;6.50;;;3.20;;
14520;SDS011;7347;50.844;4.490;2023-02-13T17:31:14;6.50;;;3.33;;
14520;SDS011;7347;50.844;4.490;2023-02-13T17:33:41;6.17;;;2.90;;
14520;SDS011;7347;50.844;4.490;2023-02-13T17:36:10;6.43;;;3.50;;
14520;SDS011;7347;50.844;4.490;2023-02-13T17:38:38;7.53;;;3.43;;
14520;SDS011;7347;50.844;4.490;2023-02-13T17:41:05;6.73;;;3.47;;
14520;SDS011;7347;50.844;4.490;2023-02-13T17:43:39;6.43;;;3.37;;
14520;SDS011;7347;50.844;4.490;2023-02-13T17:46:05;6.63;;;3.27;;
14520;SDS011;7347;50.844;4.490;2023-02-13T17:48:32;8.23;;;3.57;;
14520;SDS011;7347;50.844;4.490;2023-02-13T17:50:59;9.07;;;4.17;;
14520;SDS011;7347;50.844;4.490;2023-02-13T17:53:28;8.23;;;4.00;;
14520;SDS011;7347;50.844;4.490;2023-02-13T17:55:56;7.20;;;4.03;;
14520;SDS011;7347;50.844;4.490;2023-02-13T17:58:23;8.27;;;4.00;;
14520;SDS011;7347;50.844;4.490;2023-02-13T18:00:50;11.20;;;4.43;;
14520;SDS011;7347;50.844;4.490;2023-02-13T18:03:16;9.23;;;3.97;;
14520;SDS011;7347;50.844;4.490;2023-02-13T18:05:45;10.33;;;4.40;;
14520;SDS011;7347;50.844;4.490;2023-02-13T18:08:13;9.13;;;5.13;;
14520;SDS011;7347;50.844;4.490;2023-02-13T18:10:41;9.63;;;4.67;;
14520;SDS011;7347;50.844;4.490;2023-02-13T18:13:08;13.10;;;5.77;;
14520;SDS011;7347;50.844;4.490;2023-02-13T18:15:37;13.80;;;5.90;;
14520;SDS011;7347;50.844;4.490;2023-02-13T18:18:06;9.67;;;4.93;;
14520;SDS011;7347;50.844;4.490;2023-02-13T18:20:33;10.07;;;5.03;;
14520;SDS011;7347;50.844;4.490;2023-02-13T18:23:00;11.90;;;5.77;;
14520;SDS011;7347;50.844;4.490;2023-02-13T18:25:27;9.83;;;5.10;;
14520;SDS011;7347;50.844;4.490;2023-02-13T18:27:56;10.60;;;5.23;;
14520;SDS011;7347;50.844;4.490;2023-02-13T18:30:23;11.80;;;4.83;;
14520;SDS011;7347;50.844;4.490;2023-02-13T18:32:49;10.57;;;5.17;;
14520;SDS011;7347;50.844;4.490;2023-02-13T18:35:18;13.03;;;5.20;;
14520;SDS011;7347;50.844;4.490;2023-02-13T18:37:44;12.07;;;5.83;;
14520;SDS011;7347;50.844;4.490;2023-02-13T18:40:11;12.60;;;5.57;;
14520;SDS011;7347;50.844;4.490;2023-02-13T18:42:41;12.20;;;5.60;;
14520;SDS011;7347;50.844;4.490;2023-02-13T18:45:10;13.60;;;4.83;;
14520;SDS011;7347;50.844;4.490;2023-02-13T18:47:37;11.97;;;5.13;;
14520;SDS011;7347;50.844;4.490;2023-02-13T18:50:04;12.87;;;5.40;;
14520;SDS011;7347;50.844;4.490;2023-02-13T18:52:32;10.77;;;4.93;;
14520;SDS011;7347;50.844;4.490;2023-02-13T18:54:59;10.27;;;4.57;;
14520;SDS011;7347;50.844;4.490;2023-02-13T18:57:26;10.70;;;4.73;;
14520;SDS011;7347;50.844;4.490;2023-02-13T18:59:53;10.17;;;4.77;;
14520;SDS011;7347;50.844;4.490;2023-02-13T19:02:21;12.20;;;4.97;;
14520;SDS011;7347;50.844;4.490;2023-02-13T19:04:48;10.20;;;4.90;;
14520;SDS011;7347;50.844;4.490;2023-02-13T19:07:15;11.47;;;5.23;;
14520;SDS011;7347;50.844;4.490;2023-02-13T19:09:42;10.93;;;5.33;;
14520;SDS011;7347;50.844;4.490;2023-02-13T19:12:09;11.77;;;5.93;;
14520;SDS011;7347;50.844;4.490;2023-02-13T19:14:37;16.30;;;7.00;;
14520;SDS011;7347;50.844;4.490;2023-02-13T19:17:04;11.80;;;5.97;;
14520;SDS011;7347;50.844;4.490;2023-02-13T19:19:33;14.20;;;5.17;;
14520;SDS011;7347;50.844;4.490;2023-02-13T19:22:00;13.13;;;6.17;;
14520;SDS011;7347;50.844;4.490;2023-02-13T19:24:27;13.47;;;6.33;;
14520;SDS011;7347;50.844;4.490;2023-02-13T19:26:54;16.47;;;6.20;;
14520;SDS011;7347;50.844;4.490;2023-02-13T19:29:21;14.07;;;6.30;;
14520;SDS011;7347;50.844;4.490;2023-02-13T19:31:48;12.17;;;5.97;;
14520;SDS011;7347;50.844;4.490;2023-02-13T19:34:14;12.03;;;5.73;;
14520;SDS011;7347;50.844;4.490;2023-02-13T19:36:43;16.80;;;6.87;;
14520;SDS011;7347;50.844;4.490;2023-02-13T19:39:09;12.90;;;6.47;;
14520;SDS011;7347;50.844;4.490;2023-02-13T19:41:36;17.23;;;7.27;;
14520;SDS011;7347;50.844;4.490;2023-02-13T19:44:04;14.77;;;6.67;;
14520;SDS011;7347;50.844;4.490;2023-02-13T19:46:32;11.87;;;6.83;;
14520;SDS011;7347;50.844;4.490;2023-02-13T19:49:00;16.87;;;7.83;;
14520;SDS011;7347;50.844;4.490;2023-02-13T19:51:27;16.70;;;7.83;;
14520;SDS011;7347;50.844;4.490;2023-02-13T19:53:58;18.47;;;8.30;;
14520;SDS011;7347;50.844;4.490;2023-02-13T19:56:26;17.73;;;7.57;;
14520;SDS011;7347;50.844;4.490;2023-02-13T19:58:54;17.53;;;8.30;;
14520;SDS011;7347;50.844;4.490;2023-02-13T20:01:23;17.57;;;8.13;;
14520;SDS011;7347;50.844;4.490;2023-02-13T20:03:50;17.07;;;8.03;;
14520;SDS011;7347;50.844;4.490;2023-02-13T20:06:18;15.57;;;8.27;;
14520;SDS011;7347;50.844;4.490;2023-02-13T20:08:46;16.17;;;8.17;;
14520;SDS011;7347;50.844;4.490;2023-02-13T20:11:15;16.07;;;7.73;;
14520;SDS011;7347;50.844;4.490;2023-02-13T20:13:43;15.27;;;7.37;;
14520;SDS011;7347;50.844;4.490;2023-02-13T20:16:10;17.77;;;7.33;;
14520;SDS011;7347;50.844;4.490;2023-02-13T20:18:39;16.87;;;7.77;;
14520;SDS011;7347;50.844;4.490;2023-02-13T20:21:06;14.20;;;7.17;;
14520;SDS011;7347;50.844;4.490;2023-02-13T20:23:34;12.87;;;7.07;;
14520;SDS011;7347;50.844;4.490;2023-02-13T20:26:01;14.67;;;7.27;;
14520;SDS011;7347;50.844;4.490;2023-02-13T20:28:30;20.23;;;8.13;;
14520;SDS011;7347;50.844;4.490;2023-02-13T20:30:57;13.83;;;7.17;;
14520;SDS011;7347;50.844;4.490;2023-02-13T20:33:24;14.50;;;7.90;;
14520;SDS011;7347;50.844;4.490;2023-02-13T20:35:51;17.03;;;7.73;;
14520;SDS011;7347;50.844;4.490;2023-02-13T20:38:18;17.23;;;8.30;;
14520;SDS011;7347;50.844;4.490;2023-02-13T20:40:45;16.03;;;7.83;;
14520;SDS011;7347;50.844;4.490;2023-02-13T20:43:11;14.47;;;7.53;;
14520;SDS011;7347;50.844;4.490;2023-02-13T20:45:39;15.63;;;7.90;;
14520;SDS011;7347;50.844;4.490;2023-02-13T20:48:06;16.37;;;8.03;;
14520;SDS011;7347;50.844;4.490;2023-02-13T20:50:33;18.13;;;8.27;;
14520;SDS011;7347;50.844;4.490;2023-02-13T20:53:00;15.30;;;8.20;;
14520;SDS011;7347;50.844;4.490;2023-02-13T20:55:26;16.77;;;8.67;;
14520;SDS011;7347;50.844;4.490;2023-02-13T20:57:53;15.93;;;7.43;;
14520;SDS011;7347;50.844;4.490;2023-02-13T21:00:20;17.77;;;8.57;;
14520;SDS011;7347;50.844;4.490;2023-02-13T21:02:49;18.57;;;8.00;;
14520;SDS011;7347;50.844;4.490;2023-02-13T21:05:15;16.87;;;7.70;;
14520;SDS011;7347;50.844;4.490;2023-02-13T21:07:42;13.60;;;7.50;;
14520;SDS011;7347;50.844;4.490;2023-02-13T21:10:09;13.67;;;7.97;;
14520;SDS011;7347;50.844;4.490;2023-02-13T21:12:36;13.60;;;7.47;;
14520;SDS011;7347;50.844;4.490;2023-02-13T21:15:03;14.23;;;7.70;;
14520;SDS011;7347;50.844;4.490;2023-02-13T21:17:30;18.50;;;8.13;;
14520;SDS011;7347;50.844;4.490;2023-02-13T21:19:58;19.53;;;9.27;;
14520;SDS011;7347;50.844;4.490;2023-02-13T21:22:25;17.23;;;9.13;;
14520;SDS011;7347;50.844;4.490;2023-02-13T21:24:52;20.13;;;8.93;;
14520;SDS011;7347;50.844;4.490;2023-02-13T21:27:18;16.87;;;9.20;;
14520;SDS011;7347;50.844;4.490;2023-02-13T21:29:46;19.40;;;8.47;;
14520;SDS011;7347;50.844;4.490;2023-02-13T21:32:13;18.57;;;8.40;;
14520;SDS011;7347;50.844;4.490;2023-02-13T21:34:40;21.43;;;8.83;;
14520;SDS011;7347;50.844;4.490;2023-02-13T21:37:08;20.00;;;8.77;;
14520;SDS011;7347;50.844;4.490;2023-02-13T21:39:35;21.87;;;9.63;;
14520;SDS011;7347;50.844;4.490;2023-02-13T21:42:02;19.03;;;9.60;;
14520;SDS011;7347;50.844;4.490;2023-02-13T21:44:29;17.60;;;9.90;;
14520;SDS011;7347;50.844;4.490;2023-02-13T21:46:56;16.03;;;9.17;;
14520;SDS011;7347;50.844;4.490;2023-02-13T21:49:23;21.20;;;9.50;;
14520;SDS011;7347;50.844;4.490;2023-02-13T21:51:50;18.43;;;9.00;;
14520;SDS011;7347;50.844;4.490;2023-02-13T21:54:18;22.30;;;9.60;;
14520;SDS011;7347;50.844;4.490;2023-02-13T21:56:44;18.43;;;9.00;;
14520;SDS011;7347;50.844;4.490;2023-02-13T21:59:12;19.07;;;9.27;;
14520;SDS011;7347;50.844;4.490;2023-02-13T22:01:40;18.17;;;9.17;;
14520;SDS011;7347;50.844;4.490;2023-02-13T22:04:07;15.00;;;8.20;;
14520;SDS011;7347;50.844;4.490;2023-02-13T22:06:35;17.90;;;9.67;;
14520;SDS011;7347;50.844;4.490;2023-02-13T22:09:04;17.73;;;8.57;;
14520;SDS011;7347;50.844;4.490;2023-02-13T22:11:34;14.83;;;8.07;;
14520;SDS011;7347;50.844;4.490;2023-02-13T22:14:02;15.60;;;7.77;;
14520;SDS011;7347;50.844;4.490;2023-02-13T22:16:32;17.30;;;8.33;;
14520;SDS011;7347;50.844;4.490;2023-02-13T22:19:00;15.97;;;8.67;;
14520;SDS011;7347;50.844;4.490;2023-02-13T22:21:27;18.70;;;8.10;;
14520;SDS011;7347;50.844;4.490;2023-02-13T22:23:56;18.53;;;8.53;;
14520;SDS011;7347;50.844;4.490;2023-02-13T22:26:23;19.73;;;9.03;;
14520;SDS011;7347;50.844;4.490;2023-02-13T22:28:53;17.83;;;9.50;;
14520;SDS011;7347;50.844;4.490;2023-02-13T22:31:23;20.80;;;9.00;;
14520;SDS011;7347;50.844;4.490;2023-02-13T22:33:50;15.53;;;8.63;;
14520;SDS011;7347;50.844;4.490;2023-02-13T22:36:17;17.10;;;7.80;;
14520;SDS011;7347;50.844;4.490;2023-02-13T22:38:46;14.77;;;7.07;;
14520;SDS011;7347;50.844;4.490;2023-02-13T22:41:14;17.83;;;8.80;;
14520;SDS011;7347;50.844;4.490;2023-02-13T22:43:42;17.87;;;8.30;;
14520;SDS011;7347;50.844;4.490;2023-02-13T22:46:11;19.13;;;8.20;;
14520;SDS011;7347;50.844;4.490;2023-02-13T22:48:40;19.00;;;7.63;;
14520;SDS011;7347;50.844;4.490;2023-02-13T22:51:09;16.80;;;8.00;;
14520;SDS011;7347;50.844;4.490;2023-02-13T22:53:36;18.07;;;7.40;;
14520;SDS011;7347;50.844;4.490;2023-02-13T22:56:04;17.63;;;8.93;;
14520;SDS011;7347;50.844;4.490;2023-02-13T22:58:32;15.93;;;7.67;;
14520;SDS011;7347;50.844;4.490;2023-02-13T23:00:59;15.70;;;7.97;;
